Terminal Aerodrome Forecast
Issued by NWS Duluth, MN

Home | Current Version | Previous Version | Text Only | Print | Product List | Glossary Off
Versions: 1 2 3 4 5 6 7 8 9 10 11 12 13 14 15 16 17 18 19

000
FTUS43 KDLH 252038 AAC
TAFINL
TAF AMD
KINL 252038Z 2521/2618 22004KT P6SM BKN028 OVC050
     FM252200 26006KT P6SM OVC030
     FM260300 29006KT P6SM VCSH BKN035
     FM260700 VRB03KT P6SM VCSH BKN025
     FM261400 32005KT P6SM BKN040=

USA.gov is the U.S. government's official web portal to all federal, state and local government web resources and services.